Tyrone, NM

12:49 PM MST on February 14, 2016 (GMT -0700)
Grant County

Weather History for KSVC - March, 2014

Change the Weather History Date:

Wednesday, March 26, 2014

  Actual Average (KDMN) Record (KDMN)
Temperature  
Mean Temperature 52 °F 53 °F  
Max Temperature 68 °F 70 °F 85 °F (1956)
Min Temperature 35 °F 37 °F 21 °F (1964)
Degree Days  
Heating Degree Days 14    
Growing Degree Days 2 (Base 50)    
Moisture  
Dew Point 24 °F    
Average Humidity 45    
Maximum Humidity 93    
Minimum Humidity 11    
Precipitation  
Precipitation 0.00 in 0.01 in 0.24 in (1951)
Month to date precipitation 0.36  
Year to date precipitation 1.56  
Sea Level Pressure  
Sea Level Pressure 29.91 in    
Wind  
Wind Speed 12 mph (WNW)    
Max Wind Speed 30 mph    
Max Gust Speed 43 mph    
Visibility 10 miles    
Events      
T = Trace of Precipitation, MM = Missing Value Source: NWS Daily Summary

Daily Weather History Graph

Daily Weather History Graph

Search for Another Location

Airport or City:

Trip Planner

Search our weather history database for the weather conditions in past years. The results will help you decide how hot, cold, wet, or windy it might be!

Date:

Astronomy

Mar. 26, 2014 Rise Set
Actual Time 7:08 AM MDT 7:28 PM MDT
Civil Twilight 6:43 AM MDT 7:53 PM MDT
Nautical Twilight 6:15 AM MDT 8:22 PM MDT
Astronomical Twilight 5:45 AM MDT 8:51 PM MDT
Moon 4:05 AM MDT (3/26) 3:23 PM MDT (3/26)
Length of Visible Light 13h 09m
Length of Day
12h 20m
Waning Crescent, 21% of the Moon is Illuminated
Mar 26
Waning Crescent
Mar 30
New
Apr 7
First Quarter
Apr 15
Full
Apr 22
Last Quarter

Hourly Weather History & Observations

Time (MDT) Temp. Windchill Dew Point Humidity Pressure Visibility Wind Dir Wind Speed Gust Speed Precip Events Conditions
12:15 AM 44.6 °F 40.2 °F 39.2 °F 81% 29.99 in 10.0 mi North 8.1 mph - N/A   Clear
12:35 AM 44.6 °F 40.7 °F 39.2 °F 81% 29.98 in 10.0 mi NNE 6.9 mph - N/A   Clear
12:55 AM 41.0 °F 37.1 °F 39.2 °F 93% 29.98 in 10.0 mi North 5.8 mph - N/A   Clear
1:15 AM 39.2 °F 34.2 °F 37.4 °F 93% 29.98 in 10.0 mi NNW 6.9 mph - N/A   Clear
1:35 AM 41.0 °F 35.2 °F 37.4 °F 87% 29.97 in 10.0 mi North 9.2 mph - N/A   Clear
1:55 AM 39.2 °F 33.0 °F 35.6 °F 87% 29.97 in 10.0 mi NNW 9.2 mph - N/A   Clear
2:15 AM 39.2 °F 34.2 °F 35.6 °F 87% 29.97 in 10.0 mi NNW 6.9 mph - N/A   Clear
2:35 AM 37.4 °F 32.1 °F 35.6 °F 93% 29.96 in 10.0 mi North 6.9 mph - N/A   Clear
2:55 AM 35.6 °F 30.7 °F 33.8 °F 93% 29.95 in 10.0 mi NNW 5.8 mph - N/A   Clear
3:15 AM 37.4 °F 30.8 °F 35.6 °F 93% 29.94 in 10.0 mi NW 9.2 mph - N/A   Clear
3:35 AM 37.4 °F 30.8 °F 35.6 °F 93% 29.94 in 10.0 mi NW 9.2 mph - N/A   Clear
3:55 AM 35.6 °F 27.5 °F 32.0 °F 87% 29.94 in 10.0 mi North 11.5 mph - N/A   Clear
4:15 AM 37.4 °F 30.3 °F 33.8 °F 87% 29.93 in 10.0 mi North 10.4 mph - N/A   Clear
4:35 AM 37.4 °F 30.8 °F 33.8 °F 87% 29.93 in 10.0 mi North 9.2 mph - N/A   Clear
4:55 AM 35.6 °F 28.0 °F 32.0 °F 87% 29.94 in 10.0 mi North 10.4 mph - N/A   Clear
5:15 AM 37.4 °F 30.3 °F 32.0 °F 81% 29.94 in 10.0 mi North 10.4 mph - N/A   Clear
5:35 AM 35.6 °F 28.0 °F 32.0 °F 87% 29.94 in 10.0 mi North 10.4 mph - N/A   Clear
5:55 AM 35.6 °F 28.6 °F 32.0 °F 87% 29.94 in 10.0 mi North 9.2 mph - N/A   Clear
6:15 AM 35.6 °F 29.2 °F 32.0 °F 87% 29.94 in 10.0 mi North 8.1 mph - N/A   Clear
6:35 AM 35.6 °F 27.5 °F 32.0 °F 87% 29.95 in 10.0 mi North 11.5 mph - N/A   Clear
6:55 AM 35.6 °F 28.6 °F 32.0 °F 87% 29.96 in 10.0 mi North 9.2 mph - N/A   Clear
7:15 AM 35.6 °F 29.9 °F 32.0 °F 87% 29.96 in 10.0 mi North 6.9 mph - N/A   Clear
7:35 AM 35.6 °F 31.7 °F 32.0 °F 87% 29.97 in 10.0 mi North 4.6 mph - N/A   Clear
7:55 AM 37.4 °F 31.4 °F 35.6 °F 93% 29.97 in 10.0 mi North 8.1 mph - N/A   Clear
8:15 AM 41.0 °F 37.1 °F 37.4 °F 87% 29.97 in 10.0 mi NNE 5.8 mph - N/A   Clear
8:35 AM 46.4 °F 45.2 °F 37.4 °F 71% 29.98 in 10.0 mi NE 3.5 mph - N/A   Clear
8:55 AM 50.0 °F - 35.6 °F 58% 29.98 in 10.0 mi Calm Calm - N/A   Clear
9:15 AM 50.0 °F - 35.6 °F 58% 29.99 in 10.0 mi Calm Calm - N/A   Clear
9:35 AM 50.0 °F - 35.6 °F 58% 29.98 in 10.0 mi Calm Calm - N/A   Clear
9:55 AM 51.8 °F - 35.6 °F 54% 29.99 in 10.0 mi South 3.5 mph - N/A   Clear
10:15 AM 53.6 °F - 35.6 °F 51% 29.99 in 10.0 mi SE 3.5 mph - N/A   Clear
10:35 AM 55.4 °F - 35.6 °F 47% 29.99 in 10.0 mi Calm Calm - N/A   Clear
10:55 AM 59.0 °F - 23.0 °F 25% 29.98 in 10.0 mi West 18.4 mph 24.2 mph N/A   Clear
11:15 AM 59.0 °F - 23.0 °F 25% 29.98 in 10.0 mi WSW 21.9 mph 28.8 mph N/A   Clear
11:35 AM 60.8 °F - 19.4 °F 20% 29.98 in 10.0 mi West 16.1 mph 27.6 mph N/A   Clear
11:55 AM 60.8 °F - 19.4 °F 20% 29.97 in 10.0 mi WSW 13.8 mph 25.3 mph N/A   Clear
12:15 PM 62.6 °F - 15.8 °F 16% 29.96 in 10.0 mi West 20.7 mph 29.9 mph N/A   Clear
12:35 PM 62.6 °F - 15.8 °F 16% 29.95 in 10.0 mi WSW 20.7 mph 36.8 mph N/A   Clear
12:55 PM 62.6 °F - 15.8 °F 16% 29.95 in 10.0 mi SW 15.0 mph 28.8 mph N/A   Clear
1:15 PM 62.6 °F - 15.8 °F 16% 29.94 in 10.0 mi WSW 16.1 mph 28.8 mph N/A   Clear
1:35 PM 64.4 °F - 15.8 °F 15% 29.92 in 10.0 mi West 19.6 mph 33.4 mph N/A   Clear
1:55 PM 64.4 °F - 14.0 °F 14% 29.91 in 10.0 mi WSW 23.0 mph 33.4 mph N/A   Clear
2:15 PM 66.2 °F - 10.4 °F 11% 29.89 in 10.0 mi WSW 28.8 mph 34.5 mph N/A   Clear
2:35 PM 66.2 °F - 10.4 °F 11% 29.88 in 10.0 mi WSW 28.8 mph 39.1 mph N/A   Clear
2:55 PM 66.2 °F - 10.4 °F 11% 29.87 in 10.0 mi WSW 29.9 mph 42.6 mph N/A   Clear
3:15 PM 66.2 °F - 10.4 °F 11% 29.87 in 10.0 mi West 20.7 mph 39.1 mph N/A   Clear
3:35 PM 66.2 °F - 10.4 °F 11% 29.86 in 10.0 mi WSW 27.6 mph 39.1 mph N/A   Clear
3:55 PM 66.2 °F - 10.4 °F 11% 29.85 in 10.0 mi WSW 28.8 mph 38.0 mph N/A   Partly Cloudy
4:15 PM 68.0 °F - 12.2 °F 12% 29.85 in 10.0 mi West 27.6 mph 36.8 mph N/A   Partly Cloudy
4:35 PM 68.0 °F - 14.0 °F 12% 29.84 in 10.0 mi West 29.9 mph 42.6 mph N/A   Clear
4:55 PM 66.2 °F - 14.0 °F 13% 29.83 in 10.0 mi WSW 27.6 mph 36.8 mph N/A   Clear
5:15 PM 66.2 °F - 15.8 °F 14% 29.83 in 10.0 mi West 23.0 mph 33.4 mph N/A   Clear
5:35 PM 66.2 °F - 15.8 °F 14% 29.82 in 10.0 mi West 20.7 mph 35.7 mph N/A   Clear
5:55 PM 64.4 °F - 17.6 °F 16% 29.83 in 10.0 mi West 19.6 mph 32.2 mph N/A   Clear
6:15 PM 64.4 °F - 17.6 °F 16% 29.82 in 10.0 mi WSW 24.2 mph 31.1 mph N/A   Clear
6:35 PM 64.4 °F - 15.8 °F 15% 29.81 in 10.0 mi WSW 27.6 mph 35.7 mph N/A   Clear
6:55 PM 62.6 °F - 14.0 °F 15% 29.82 in 10.0 mi WSW 25.3 mph 35.7 mph N/A   Clear
7:15 PM 62.6 °F - 15.8 °F 16% 29.82 in 10.0 mi West 17.3 mph 36.8 mph N/A   Clear
7:35 PM 60.8 °F - 14.0 °F 16% 29.83 in 10.0 mi West 18.4 mph 27.6 mph N/A   Clear
7:55 PM 59.0 °F - 15.8 °F 19% 29.82 in 10.0 mi West 17.3 mph 24.2 mph N/A   Clear
8:15 PM 59.0 °F - 14.0 °F 17% 29.83 in 10.0 mi West 23.0 mph 29.9 mph N/A   Clear
8:35 PM 59.0 °F - 14.0 °F 17% 29.83 in 10.0 mi West 17.3 mph 25.3 mph N/A   Clear
8:55 PM 59.0 °F - 14.0 °F 17% 29.83 in 10.0 mi West 19.6 mph 27.6 mph N/A   Clear
9:15 PM 59.0 °F - 14.0 °F 17% 29.84 in 10.0 mi West 20.7 mph 29.9 mph N/A   Clear
9:35 PM 57.2 °F - 15.8 °F 20% 29.85 in 10.0 mi WNW 17.3 mph 26.5 mph N/A   Clear
9:55 PM 57.2 °F - 15.8 °F 20% 29.86 in 10.0 mi WNW 24.2 mph 29.9 mph N/A   Clear
10:15 PM 57.2 °F - 17.6 °F 21% 29.86 in 10.0 mi West 17.3 mph 31.1 mph N/A   Clear
10:35 PM 57.2 °F - 17.6 °F 21% 29.86 in 10.0 mi West 20.7 mph 27.6 mph N/A   Clear
10:55 PM 57.2 °F - 17.6 °F 21% 29.86 in 10.0 mi West 16.1 mph 23.0 mph N/A   Clear
11:15 PM 55.4 °F - 17.6 °F 23% 29.86 in 10.0 mi West 16.1 mph 28.8 mph N/A   Clear
11:35 PM 55.4 °F - 19.4 °F 25% 29.86 in 10.0 mi West 17.3 mph 24.2 mph N/A   Clear
11:55 PM 55.4 °F - 19.4 °F 25% 29.87 in 10.0 mi West 17.3 mph 27.6 mph N/A   Clear